createdAt,value
2017-10-07T22:55:56.627Z,922.5
2017-10-07T22:56:24.569Z,922.48
2017-10-07T22:56:53.214Z,922.46
2017-10-07T22:57:21.965Z,922.42
2017-10-07T22:57:49.828Z,922.43
2017-10-07T22:58:17.792Z,922.45
2017-10-07T22:58:47.341Z,922.47
2017-10-07T22:59:15.994Z,922.44
2017-10-07T22:59:43.858Z,922.46
2017-10-07T23:00:13.296Z,922.41
2017-10-07T23:00:41.936Z,922.48
2017-10-07T23:01:11.371Z,922.42
2017-10-07T23:01:39.319Z,922.47
2017-10-07T23:02:07.268Z,922.47
2017-10-07T23:02:35.990Z,922.49
2017-10-07T23:03:03.836Z,922.52
2017-10-07T23:03:31.781Z,922.51
2017-10-07T23:03:59.549Z,922.53
2017-10-07T23:04:28.296Z,922.53
2017-10-07T23:04:56.949Z,922.58
2017-10-07T23:05:25.593Z,922.58
2017-10-07T23:05:53.663Z,922.57
2017-10-07T23:06:22.413Z,922.59
2017-10-07T23:06:51.060Z,922.63
2017-10-07T23:07:18.917Z,922.65
2017-10-07T23:07:46.769Z,922.67
2017-10-07T23:08:14.719Z,922.65
2017-10-07T23:08:42.676Z,922.71
2017-10-07T23:09:11.528Z,922.65
2017-10-07T23:09:39.474Z,922.71
2017-10-07T23:10:08.920Z,922.71
2017-10-07T23:10:36.870Z,922.77
2017-10-07T23:11:05.867Z,922.76
2017-10-07T23:11:35.392Z,922.77
2017-10-07T23:12:03.336Z,922.83
2017-10-07T23:12:32.884Z,922.76
2017-10-07T23:13:00.647Z,922.84
2017-10-07T23:13:28.592Z,922.82
2017-10-07T23:13:57.348Z,922.82
2017-10-07T23:14:25.305Z,922.84
2017-10-07T23:14:53.948Z,922.87
2017-10-07T23:15:22.679Z,922.83
2017-10-07T23:15:50.722Z,922.82
2017-10-07T23:16:18.577Z,922.74
2017-10-07T23:16:46.523Z,922.83
2017-10-07T23:17:14.371Z,922.86
2017-10-07T23:17:42.305Z,922.81
2017-10-07T23:18:10.263Z,922.83
2017-10-07T23:18:38.117Z,922.77
2017-10-07T23:19:06.064Z,922.76
2017-10-07T23:19:34.002Z,922.81
2017-10-07T23:20:02.737Z,922.84
2017-10-07T23:20:31.474Z,922.8
2017-10-07T23:20:59.504Z,922.8
2017-10-07T23:21:27.434Z,922.82
2017-10-07T23:21:55.309Z,922.82
2017-10-07T23:22:24.758Z,922.82
2017-10-07T23:22:52.695Z,922.83
2017-10-07T23:23:20.655Z,922.84
2017-10-07T23:23:48.607Z,922.82
2017-10-07T23:24:16.539Z,922.84
2017-10-07T23:24:44.403Z,922.84
2017-10-07T23:25:12.163Z,922.85
2017-10-07T23:25:40.825Z,922.86
2017-10-07T23:26:09.675Z,922.9
2017-10-07T23:26:37.636Z,922.89
2017-10-07T23:27:05.582Z,922.87
2017-10-07T23:27:34.232Z,922.88
2017-10-07T23:28:02.975Z,922.86
2017-10-07T23:28:31.714Z,922.89
2017-10-07T23:28:59.681Z,922.9
2017-10-07T23:29:27.630Z,922.87
2017-10-07T23:29:56.271Z,922.87
2017-10-07T23:30:24.145Z,922.83
2017-10-07T23:30:52.095Z,922.84
2017-10-07T23:31:20.166Z,922.82
2017-10-07T23:31:48.112Z,922.82
2017-10-07T23:32:16.053Z,922.85
2017-10-07T23:32:45.578Z,922.8
2017-10-07T23:33:13.534Z,922.79
2017-10-07T23:33:41.484Z,922.81
2017-10-07T23:34:10.223Z,922.81
2017-10-07T23:35:16.479Z,922.83
2017-10-07T23:35:44.341Z,922.84
2017-10-07T23:36:13.091Z,922.83
2017-10-07T23:36:41.844Z,922.84
2017-10-07T23:37:11.383Z,922.82
2017-10-07T23:37:39.342Z,922.86
2017-10-07T23:38:08.100Z,922.89
2017-10-07T23:38:36.854Z,922.87
2017-10-07T23:39:05.598Z,922.92
2017-10-07T23:39:33.544Z,922.93
2017-10-07T23:40:01.298Z,922.94
2017-10-07T23:40:30.040Z,922.98
2017-10-07T23:40:59.471Z,922.99
2017-10-07T23:41:28.412Z,923
2017-10-07T23:41:56.338Z,923.02
2017-10-07T23:42:24.279Z,923.03
2017-10-07T23:42:52.222Z,923.03
2017-10-07T23:43:20.975Z,923.04
2017-10-07T23:43:48.934Z,923.07
2017-10-07T23:44:16.890Z,923.1
2017-10-07T23:44:46.336Z,923.09
2017-10-07T23:45:14.203Z,923.12
2017-10-07T23:45:42.165Z,923.14
2017-10-07T23:46:11.797Z,923.15
2017-10-07T23:46:39.738Z,923.12
2017-10-07T23:47:08.473Z,923.16
2017-10-07T23:47:37.210Z,923.16
2017-10-07T23:48:05.171Z,923.21
2017-10-07T23:48:33.126Z,923.22
2017-10-07T23:49:01.078Z,923.23
2017-10-07T23:49:29.028Z,923.18
2017-10-07T23:49:56.889Z,923.19
2017-10-07T23:50:24.848Z,923.2
2017-10-07T23:50:52.793Z,923.21
2017-10-07T23:51:21.635Z,923.18
2017-10-07T23:51:49.596Z,923.21
2017-10-07T23:52:17.552Z,923.09
2017-10-07T23:52:46.304Z,923.19
2017-10-07T23:53:14.264Z,923.19
2017-10-07T23:53:42.216Z,923.15
2017-10-07T23:54:10.942Z,923.12
2017-10-07T23:54:54.228Z,923.07
2017-10-07T23:55:22.958Z,923.17
2017-10-07T23:55:50.908Z,923.15
2017-10-07T23:56:19.901Z,923.15
2017-10-07T23:56:48.465Z,923.13
2017-10-07T23:57:17.196Z,923.15
2017-10-07T23:57:45.152Z,923.2
2017-10-07T23:58:13.803Z,923.17
2017-10-07T23:58:41.746Z,923.2
2017-10-07T23:59:10.386Z,923.12
2017-10-07T23:59:39.131Z,923.14
